sensor_id;sensor_type;location;lat;lon;timestamp;pressure;altitude;pressure_sealevel;temperature
40199;BMP280;25906;43.536;26.068;2022-10-16T00:01:23;99384.16;;;8.61
40199;BMP280;25906;43.536;26.068;2022-10-16T00:04:09;99392.25;;;8.61
40199;BMP280;25906;43.536;26.068;2022-10-16T00:06:55;99397.81;;;8.63
40199;BMP280;25906;43.536;26.068;2022-10-16T00:09:41;99394.56;;;8.57
40199;BMP280;25906;43.536;26.068;2022-10-16T00:12:41;99395.31;;;8.57
40199;BMP280;25906;43.536;26.068;2022-10-16T00:15:27;99395.09;;;8.55
40199;BMP280;25906;43.536;26.068;2022-10-16T00:18:13;99397.25;;;8.57
40199;BMP280;25906;43.536;26.068;2022-10-16T00:21:14;99401.06;;;8.61
40199;BMP280;25906;43.536;26.068;2022-10-16T00:24:03;99404.13;;;8.65
40199;BMP280;25906;43.536;26.068;2022-10-16T00:26:50;99408.47;;;8.68
40199;BMP280;25906;43.536;26.068;2022-10-16T00:29:36;99402.66;;;8.57
40199;BMP280;25906;43.536;26.068;2022-10-16T00:32:21;99403.91;;;8.56
40199;BMP280;25906;43.536;26.068;2022-10-16T00:35:07;99406.03;;;8.50
40199;BMP280;25906;43.536;26.068;2022-10-16T00:37:52;99407.25;;;8.34
40199;BMP280;25906;43.536;26.068;2022-10-16T00:40:38;99406.53;;;8.34
40199;BMP280;25906;43.536;26.068;2022-10-16T00:43:42;99418.78;;;8.42
40199;BMP280;25906;43.536;26.068;2022-10-16T00:46:38;99417.56;;;8.43
40199;BMP280;25906;43.536;26.068;2022-10-16T00:49:24;99430.22;;;8.28
40199;BMP280;25906;43.536;26.068;2022-10-16T00:52:10;99419.97;;;8.26
40199;BMP280;25906;43.536;26.068;2022-10-16T00:54:57;99426.94;;;8.22
40199;BMP280;25906;43.536;26.068;2022-10-16T00:57:43;99428.53;;;8.17
40199;BMP280;25906;43.536;26.068;2022-10-16T01:00:30;99424.34;;;8.09
40199;BMP280;25906;43.536;26.068;2022-10-16T01:03:28;99427.53;;;8.00
40199;BMP280;25906;43.536;26.068;2022-10-16T01:12:51;99432.41;;;7.81
40199;BMP280;25906;43.536;26.068;2022-10-16T01:16:12;99426.03;;;7.71
40199;BMP280;25906;43.536;26.068;2022-10-16T01:19:13;99430.13;;;7.65
40199;BMP280;25906;43.536;26.068;2022-10-16T01:21:59;99430.53;;;7.69
40199;BMP280;25906;43.536;26.068;2022-10-16T01:24:48;99431.44;;;7.71
40199;BMP280;25906;43.536;26.068;2022-10-16T01:27:36;99435.72;;;7.67
40199;BMP280;25906;43.536;26.068;2022-10-16T01:30:26;99436.25;;;7.65
40199;BMP280;25906;43.536;26.068;2022-10-16T01:33:21;99433.94;;;7.69
40199;BMP280;25906;43.536;26.068;2022-10-16T01:36:16;99426.34;;;7.60
40199;BMP280;25906;43.536;26.068;2022-10-16T01:39:02;99423.09;;;7.62
40199;BMP280;25906;43.536;26.068;2022-10-16T01:41:54;99429.03;;;7.60
40199;BMP280;25906;43.536;26.068;2022-10-16T01:44:41;99431.25;;;7.69
40199;BMP280;25906;43.536;26.068;2022-10-16T01:47:29;99428.56;;;7.69
40199;BMP280;25906;43.536;26.068;2022-10-16T01:50:18;99427.63;;;7.67
40199;BMP280;25906;43.536;26.068;2022-10-16T01:53:05;99434.75;;;7.77
40199;BMP280;25906;43.536;26.068;2022-10-16T01:55:52;99433.72;;;7.67
40199;BMP280;25906;43.536;26.068;2022-10-16T01:58:51;99439.00;;;7.73
40199;BMP280;25906;43.536;26.068;2022-10-16T02:01:41;99444.78;;;7.77
40199;BMP280;25906;43.536;26.068;2022-10-16T02:04:34;99441.75;;;7.80
40199;BMP280;25906;43.536;26.068;2022-10-16T02:07:22;99436.63;;;7.69
40199;BMP280;25906;43.536;26.068;2022-10-16T02:10:08;99444.72;;;7.69
40199;BMP280;25906;43.536;26.068;2022-10-16T02:12:59;99444.66;;;7.62
40199;BMP280;25906;43.536;26.068;2022-10-16T02:15:45;99447.94;;;7.47
40199;BMP280;25906;43.536;26.068;2022-10-16T02:18:31;99451.75;;;7.52
40199;BMP280;25906;43.536;26.068;2022-10-16T02:30:33;99457.78;;;7.45
40199;BMP280;25906;43.536;26.068;2022-10-16T02:33:21;99461.09;;;7.51
40199;BMP280;25906;43.536;26.068;2022-10-16T02:36:08;99455.38;;;7.54
40199;BMP280;25906;43.536;26.068;2022-10-16T02:38:53;99468.66;;;7.52
40199;BMP280;25906;43.536;26.068;2022-10-16T02:41:39;99459.72;;;7.44
40199;BMP280;25906;43.536;26.068;2022-10-16T02:44:25;99458.44;;;7.38
40199;BMP280;25906;43.536;26.068;2022-10-16T02:47:10;99459.56;;;7.43
40199;BMP280;25906;43.536;26.068;2022-10-16T02:49:55;99464.75;;;7.41
40199;BMP280;25906;43.536;26.068;2022-10-16T02:52:41;99461.97;;;7.33
40199;BMP280;25906;43.536;26.068;2022-10-16T02:55:27;99470.72;;;7.46
40199;BMP280;25906;43.536;26.068;2022-10-16T02:58:13;99469.66;;;7.49
40199;BMP280;25906;43.536;26.068;2022-10-16T03:00:58;99464.97;;;7.43
40199;BMP280;25906;43.536;26.068;2022-10-16T03:03:44;99473.94;;;7.45
40199;BMP280;25906;43.536;26.068;2022-10-16T03:06:29;99483.66;;;7.48
40199;BMP280;25906;43.536;26.068;2022-10-16T03:09:15;99481.13;;;7.43
40199;BMP280;25906;43.536;26.068;2022-10-16T03:12:00;99474.88;;;7.47
40199;BMP280;25906;43.536;26.068;2022-10-16T03:14:46;99481.84;;;7.43
40199;BMP280;25906;43.536;26.068;2022-10-16T03:17:32;99479.63;;;7.21
40199;BMP280;25906;43.536;26.068;2022-10-16T03:20:18;99482.47;;;7.03
40199;BMP280;25906;43.536;26.068;2022-10-16T03:23:04;99485.25;;;6.85
40199;BMP280;25906;43.536;26.068;2022-10-16T03:25:49;99491.16;;;6.83
40199;BMP280;25906;43.536;26.068;2022-10-16T03:28:35;99497.28;;;6.96
40199;BMP280;25906;43.536;26.068;2022-10-16T03:31:20;99485.97;;;6.98
40199;BMP280;25906;43.536;26.068;2022-10-16T03:34:06;99489.28;;;7.04
40199;BMP280;25906;43.536;26.068;2022-10-16T03:36:52;99485.97;;;6.98
40199;BMP280;25906;43.536;26.068;2022-10-16T03:39:37;99486.09;;;7.05
40199;BMP280;25906;43.536;26.068;2022-10-16T03:42:23;99482.88;;;7.07
40199;BMP280;25906;43.536;26.068;2022-10-16T03:45:10;99492.50;;;7.02
40199;BMP280;25906;43.536;26.068;2022-10-16T03:47:56;99485.66;;;7.01
40199;BMP280;25906;43.536;26.068;2022-10-16T03:50:41;99488.25;;;7.07
40199;BMP280;25906;43.536;26.068;2022-10-16T03:53:27;99482.53;;;7.10
40199;BMP280;25906;43.536;26.068;2022-10-16T03:56:13;99485.03;;;7.08
40199;BMP280;25906;43.536;26.068;2022-10-16T03:58:58;99492.25;;;7.00
40199;BMP280;25906;43.536;26.068;2022-10-16T04:01:44;99494.25;;;7.00
40199;BMP280;25906;43.536;26.068;2022-10-16T04:04:29;99488.19;;;6.87
40199;BMP280;25906;43.536;26.068;2022-10-16T04:07:15;99492.09;;;6.98
40199;BMP280;25906;43.536;26.068;2022-10-16T04:10:00;99488.25;;;7.07
40199;BMP280;25906;43.536;26.068;2022-10-16T04:12:46;99491.03;;;7.01
40199;BMP280;25906;43.536;26.068;2022-10-16T04:15:32;99488.34;;;7.01
40199;BMP280;25906;43.536;26.068;2022-10-16T04:18:17;99496.03;;;6.97
40199;BMP280;25906;43.536;26.068;2022-10-16T04:21:04;99493.78;;;6.89
40199;BMP280;25906;43.536;26.068;2022-10-16T04:23:50;99491.09;;;6.89
40199;BMP280;25906;43.536;26.068;2022-10-16T04:26:35;99497.78;;;6.82
40199;BMP280;25906;43.536;26.068;2022-10-16T04:29:21;99490.25;;;6.81
40199;BMP280;25906;43.536;26.068;2022-10-16T04:32:08;99490.25;;;6.81
40199;BMP280;25906;43.536;26.068;2022-10-16T04:34:54;99496.47;;;6.89
40199;BMP280;25906;43.536;26.068;2022-10-16T04:37:39;99500.41;;;6.88
40199;BMP280;25906;43.536;26.068;2022-10-16T04:40:25;99504.84;;;6.85
40199;BMP280;25906;43.536;26.068;2022-10-16T04:43:11;99509.72;;;6.87
40199;BMP280;25906;43.536;26.068;2022-10-16T04:45:56;99508.97;;;6.86
40199;BMP280;25906;43.536;26.068;2022-10-16T04:48:42;99511.78;;;6.81
40199;BMP280;25906;43.536;26.068;2022-10-16T04:51:27;99512.78;;;6.78
40199;BMP280;25906;43.536;26.068;2022-10-16T04:54:13;99506.19;;;6.79
40199;BMP280;25906;43.536;26.068;2022-10-16T04:56:58;99513.41;;;6.84
40199;BMP280;25906;43.536;26.068;2022-10-16T04:59:44;99523.25;;;6.94
40199;BMP280;25906;43.536;26.068;2022-10-16T05:02:30;99519.53;;;6.97
40199;BMP280;25906;43.536;26.068;2022-10-16T05:05:15;99526.53;;;7.00
40199;BMP280;25906;43.536;26.068;2022-10-16T05:08:02;99525.72;;;7.05
40199;BMP280;25906;43.536;26.068;2022-10-16T05:10:47;99534.63;;;7.00
40199;BMP280;25906;43.536;26.068;2022-10-16T05:13:32;99539.41;;;7.07
40199;BMP280;25906;43.536;26.068;2022-10-16T05:16:18;99544.88;;;7.01
40199;BMP280;25906;43.536;26.068;2022-10-16T05:19:03;99554.72;;;7.12
40199;BMP280;25906;43.536;26.068;2022-10-16T05:21:49;99554.41;;;7.15
40199;BMP280;25906;43.536;26.068;2022-10-16T05:24:35;99562.34;;;7.21
40199;BMP280;25906;43.536;26.068;2022-10-16T05:27:20;99556.16;;;7.26
40199;BMP280;25906;43.536;26.068;2022-10-16T05:30:06;99563.16;;;7.29
40199;BMP280;25906;43.536;26.068;2022-10-16T05:32:52;99559.97;;;7.30
40199;BMP280;25906;43.536;26.068;2022-10-16T05:35:38;99564.94;;;7.39
40199;BMP280;25906;43.536;26.068;2022-10-16T05:38:23;99566.06;;;7.44
40199;BMP280;25906;43.536;26.068;2022-10-16T05:41:09;99576.72;;;7.49
40199;BMP280;25906;43.536;26.068;2022-10-16T05:43:55;99572.66;;;7.55
40199;BMP280;25906;43.536;26.068;2022-10-16T05:46:40;99575.03;;;7.59
40199;BMP280;25906;43.536;26.068;2022-10-16T05:49:26;99583.41;;;7.68
40199;BMP280;25906;43.536;26.068;2022-10-16T05:52:11;99585.25;;;7.73
40199;BMP280;25906;43.536;26.068;2022-10-16T05:54:57;99590.31;;;7.77
40199;BMP280;25906;43.536;26.068;2022-10-16T05:57:42;99600.47;;;7.71
40199;BMP280;25906;43.536;26.068;2022-10-16T06:00:28;99607.50;;;7.87
40199;BMP280;25906;43.536;26.068;2022-10-16T06:03:13;99613.34;;;7.98
40199;BMP280;25906;43.536;26.068;2022-10-16T06:05:59;99613.59;;;7.87
40199;BMP280;25906;43.536;26.068;2022-10-16T06:08:53;99611.97;;;7.84
40199;BMP280;25906;43.536;26.068;2022-10-16T06:11:39;99608.69;;;7.98
40199;BMP280;25906;43.536;26.068;2022-10-16T06:14:25;99620.06;;;8.04
40199;BMP280;25906;43.536;26.068;2022-10-16T06:17:11;99619.31;;;8.17
40199;BMP280;25906;43.536;26.068;2022-10-16T06:19:56;99622.34;;;8.34
40199;BMP280;25906;43.536;26.068;2022-10-16T06:22:42;99620.81;;;8.46
40199;BMP280;25906;43.536;26.068;2022-10-16T06:25:27;99626.22;;;8.46
40199;BMP280;25906;43.536;26.068;2022-10-16T06:28:14;99634.00;;;8.49
40199;BMP280;25906;43.536;26.068;2022-10-16T06:31:00;99630.22;;;8.52
40199;BMP280;25906;43.536;26.068;2022-10-16T06:33:50;99639.09;;;8.60
40199;BMP280;25906;43.536;26.068;2022-10-16T06:36:37;99646.13;;;8.91
40199;BMP280;25906;43.536;26.068;2022-10-16T06:39:23;99653.28;;;9.08
40199;BMP280;25906;43.536;26.068;2022-10-16T06:42:08;99640.44;;;9.29
40199;BMP280;25906;43.536;26.068;2022-10-16T06:44:54;99646.44;;;9.43
40199;BMP280;25906;43.536;26.068;2022-10-16T06:47:40;99650.09;;;9.52
40199;BMP280;25906;43.536;26.068;2022-10-16T06:50:25;99658.75;;;9.58
40199;BMP280;25906;43.536;26.068;2022-10-16T06:53:11;99656.28;;;9.68
40199;BMP280;25906;43.536;26.068;2022-10-16T06:55:56;99657.78;;;9.91
40199;BMP280;25906;43.536;26.068;2022-10-16T06:58:42;99656.22;;;10.10
40199;BMP280;25906;43.536;26.068;2022-10-16T07:01:29;99662.91;;;10.24
40199;BMP280;25906;43.536;26.068;2022-10-16T07:04:14;99664.91;;;10.24
40199;BMP280;25906;43.536;26.068;2022-10-16T07:07:00;99672.97;;;10.09
40199;BMP280;25906;43.536;26.068;2022-10-16T07:09:46;99671.94;;;10.34
40199;BMP280;25906;43.536;26.068;2022-10-16T07:12:32;99675.94;;;10.63
40199;BMP280;25906;43.536;26.068;2022-10-16T07:15:17;99669.91;;;10.87
40199;BMP280;25906;43.536;26.068;2022-10-16T07:18:03;99666.09;;;10.97
40199;BMP280;25906;43.536;26.068;2022-10-16T07:20:48;99672.00;;;11.18
40199;BMP280;25906;43.536;26.068;2022-10-16T07:23:34;99670.34;;;11.37
40199;BMP280;25906;43.536;26.068;2022-10-16T07:26:20;99657.31;;;11.43
40199;BMP280;25906;43.536;26.068;2022-10-16T07:29:12;99669.34;;;11.57
40199;BMP280;25906;43.536;26.068;2022-10-16T07:31:58;99670.94;;;11.67
40199;BMP280;25906;43.536;26.068;2022-10-16T07:34:44;99678.03;;;11.87
40199;BMP280;25906;43.536;26.068;2022-10-16T07:37:31;99671.59;;;12.07
40199;BMP280;25906;43.536;26.068;2022-10-16T07:40:16;99680.13;;;12.28
40199;BMP280;25906;43.536;26.068;2022-10-16T07:43:02;99688.56;;;12.39
40199;BMP280;25906;43.536;26.068;2022-10-16T07:45:50;99685.25;;;12.24
40199;BMP280;25906;43.536;26.068;2022-10-16T07:48:36;99685.84;;;12.39
40199;BMP280;25906;43.536;26.068;2022-10-16T07:51:23;99691.75;;;12.69
40199;BMP280;25906;43.536;26.068;2022-10-16T07:54:09;99694.16;;;12.82
40199;BMP280;25906;43.536;26.068;2022-10-16T07:56:55;99690.56;;;12.80
40199;BMP280;25906;43.536;26.068;2022-10-16T07:59:40;99702.72;;;12.95
40199;BMP280;25906;43.536;26.068;2022-10-16T08:02:26;99694.56;;;13.12
40199;BMP280;25906;43.536;26.068;2022-10-16T08:05:12;99694.00;;;13.30
40199;BMP280;25906;43.536;26.068;2022-10-16T08:07:57;99700.69;;;13.46
40199;BMP280;25906;43.536;26.068;2022-10-16T08:10:43;99692.09;;;13.07
40199;BMP280;25906;43.536;26.068;2022-10-16T08:13:30;99691.75;;;13.36
40199;BMP280;25906;43.536;26.068;2022-10-16T08:16:15;99696.47;;;13.62
40199;BMP280;25906;43.536;26.068;2022-10-16T08:19:02;99695.16;;;13.80
40199;BMP280;25906;43.536;26.068;2022-10-16T08:21:47;99699.91;;;13.89
40199;BMP280;25906;43.536;26.068;2022-10-16T08:24:33;99700.56;;;13.97
40199;BMP280;25906;43.536;26.068;2022-10-16T08:27:20;99703.88;;;14.05
40199;BMP280;25906;43.536;26.068;2022-10-16T08:30:06;99694.66;;;13.91
40199;BMP280;25906;43.536;26.068;2022-10-16T08:32:51;99684.69;;;13.76
40199;BMP280;25906;43.536;26.068;2022-10-16T08:35:37;99696.66;;;13.90
40199;BMP280;25906;43.536;26.068;2022-10-16T08:38:23;99699.97;;;13.98
40199;BMP280;25906;43.536;26.068;2022-10-16T08:48:05;99699.28;;;14.33
40199;BMP280;25906;43.536;26.068;2022-10-16T08:50:54;99698.66;;;14.25
40199;BMP280;25906;43.536;26.068;2022-10-16T08:53:46;99705.72;;;14.28
40199;BMP280;25906;43.536;26.068;2022-10-16T08:56:34;99708.25;;;14.17
40199;BMP280;25906;43.536;26.068;2022-10-16T08:59:19;99715.31;;;14.39
40199;BMP280;25906;43.536;26.068;2022-10-16T09:02:23;99711.69;;;14.27
40199;BMP280;25906;43.536;26.068;2022-10-16T09:05:23;99708.75;;;14.42
40199;BMP280;25906;43.536;26.068;2022-10-16T09:11:21;99722.16;;;14.85
40199;BMP280;25906;43.536;26.068;2022-10-16T09:17:26;99714.13;;;14.96
40199;BMP280;25906;43.536;26.068;2022-10-16T09:23:26;99714.84;;;15.34
40199;BMP280;25906;43.536;26.068;2022-10-16T09:26:14;99716.16;;;14.96
40199;BMP280;25906;43.536;26.068;2022-10-16T09:29:00;99710.84;;;15.16
40199;BMP280;25906;43.536;26.068;2022-10-16T09:31:46;99714.44;;;15.00
40199;BMP280;25906;43.536;26.068;2022-10-16T09:34:34;99712.97;;;14.71
40199;BMP280;25906;43.536;26.068;2022-10-16T09:37:22;99709.22;;;14.66
40199;BMP280;25906;43.536;26.068;2022-10-16T09:40:13;99705.19;;;14.49
40199;BMP280;25906;43.536;26.068;2022-10-16T09:46:08;99702.63;;;15.35
40199;BMP280;25906;43.536;26.068;2022-10-16T09:48:58;99693.66;;;15.63
40199;BMP280;25906;43.536;26.068;2022-10-16T09:51:43;99691.56;;;15.92
40199;BMP280;25906;43.536;26.068;2022-10-16T09:54:29;99691.28;;;15.29
40199;BMP280;25906;43.536;26.068;2022-10-16T09:57:15;99695.03;;;15.34
40199;BMP280;25906;43.536;26.068;2022-10-16T10:00:04;99685.19;;;15.68
40199;BMP280;25906;43.536;26.068;2022-10-16T10:02:50;99676.44;;;15.42
40199;BMP280;25906;43.536;26.068;2022-10-16T10:05:39;99679.69;;;15.78
40199;BMP280;25906;43.536;26.068;2022-10-16T10:08:25;99688.41;;;15.86
40199;BMP280;25906;43.536;26.068;2022-10-16T10:11:10;99675.41;;;15.56
40199;BMP280;25906;43.536;26.068;2022-10-16T10:14:04;99674.50;;;15.23
40199;BMP280;25906;43.536;26.068;2022-10-16T10:16:53;99680.34;;;15.48
40199;BMP280;25906;43.536;26.068;2022-10-16T10:22:44;99672.00;;;15.46
40199;BMP280;25906;43.536;26.068;2022-10-16T10:37:51;99666.53;;;15.95
40199;BMP280;25906;43.536;26.068;2022-10-16T10:53:18;99666.16;;;16.10
40199;BMP280;25906;43.536;26.068;2022-10-16T11:05:50;99662.28;;;16.54
40199;BMP280;25906;43.536;26.068;2022-10-16T11:08:47;99656.22;;;16.56
40199;BMP280;25906;43.536;26.068;2022-10-16T11:11:43;99659.88;;;16.49
40199;BMP280;25906;43.536;26.068;2022-10-16T11:14:35;99663.91;;;16.27
40199;BMP280;25906;43.536;26.068;2022-10-16T11:17:35;99662.72;;;16.51
40199;BMP280;25906;43.536;26.068;2022-10-16T11:24:13;99648.41;;;16.62
40199;BMP280;25906;43.536;26.068;2022-10-16T11:27:05;99653.28;;;16.42
40199;BMP280;25906;43.536;26.068;2022-10-16T11:29:57;99652.75;;;16.35
40199;BMP280;25906;43.536;26.068;2022-10-16T11:33:04;99650.38;;;16.50
40199;BMP280;25906;43.536;26.068;2022-10-16T11:36:15;99652.25;;;16.47
40199;BMP280;25906;43.536;26.068;2022-10-16T11:41:59;99654.59;;;16.41
40199;BMP280;25906;43.536;26.068;2022-10-16T11:51:45;99644.47;;;16.65
40199;BMP280;25906;43.536;26.068;2022-10-16T11:54:39;99642.47;;;16.65
40199;BMP280;25906;43.536;26.068;2022-10-16T11:57:29;99640.06;;;16.39
40199;BMP280;25906;43.536;26.068;2022-10-16T12:03:28;99649.50;;;16.68
40199;BMP280;25906;43.536;26.068;2022-10-16T12:09:05;99651.34;;;16.54
40199;BMP280;25906;43.536;26.068;2022-10-16T12:11:55;99656.34;;;16.37
40199;BMP280;25906;43.536;26.068;2022-10-16T12:14:40;99660.06;;;16.41
40199;BMP280;25906;43.536;26.068;2022-10-16T12:17:35;99666.09;;;16.81
40199;BMP280;25906;43.536;26.068;2022-10-16T12:20:27;99658.16;;;16.44
40199;BMP280;25906;43.536;26.068;2022-10-16T12:23:20;99652.72;;;16.44
40199;BMP280;25906;43.536;26.068;2022-10-16T12:26:07;99655.31;;;16.63
40199;BMP280;25906;43.536;26.068;2022-10-16T12:28:54;99654.41;;;16.49
40199;BMP280;25906;43.536;26.068;2022-10-16T12:31:45;99656.09;;;16.33
40199;BMP280;25906;43.536;26.068;2022-10-16T12:34:44;99659.19;;;16.60
40199;BMP280;25906;43.536;26.068;2022-10-16T12:37:34;99678.25;;;16.58
40199;BMP280;25906;43.536;26.068;2022-10-16T12:40:32;99677.13;;;16.72
40199;BMP280;25906;43.536;26.068;2022-10-16T12:51:59;99674.91;;;16.38
40199;BMP280;25906;43.536;26.068;2022-10-16T12:54:45;99665.00;;;16.34
40199;BMP280;25906;43.536;26.068;2022-10-16T13:00:31;99673.16;;;16.64
40199;BMP280;25906;43.536;26.068;2022-10-16T13:03:56;99671.91;;;16.55
40199;BMP280;25906;43.536;26.068;2022-10-16T13:06:54;99675.75;;;16.62
40199;BMP280;25906;43.536;26.068;2022-10-16T13:10:02;99671.69;;;16.42
40199;BMP280;25906;43.536;26.068;2022-10-16T13:26:09;99683.41;;;16.12
40199;BMP280;25906;43.536;26.068;2022-10-16T13:28:45;99671.16;;;16.13
40199;BMP280;25906;43.536;26.068;2022-10-16T13:31:32;99676.25;;;16.28
40199;BMP280;25906;43.536;26.068;2022-10-16T13:34:20;99678.88;;;16.47
40199;BMP280;25906;43.536;26.068;2022-10-16T13:37:17;99689.63;;;16.24
40199;BMP280;25906;43.536;26.068;2022-10-16T13:40:29;99693.44;;;16.19
40199;BMP280;25906;43.536;26.068;2022-10-16T13:43:17;99688.19;;;16.02
40199;BMP280;25906;43.536;26.068;2022-10-16T13:46:06;99697.72;;;15.92
40199;BMP280;25906;43.536;26.068;2022-10-16T13:49:01;99695.63;;;16.11
40199;BMP280;25906;43.536;26.068;2022-10-16T13:51:55;99700.59;;;15.94
40199;BMP280;25906;43.536;26.068;2022-10-16T13:54:41;99700.63;;;15.85
40199;BMP280;25906;43.536;26.068;2022-10-16T13:57:27;99702.81;;;15.86
40199;BMP280;25906;43.536;26.068;2022-10-16T14:00:24;99707.69;;;15.78
40199;BMP280;25906;43.536;26.068;2022-10-16T14:03:13;99707.06;;;15.59
40199;BMP280;25906;43.536;26.068;2022-10-16T14:06:02;99709.88;;;15.61
40199;BMP280;25906;43.536;26.068;2022-10-16T14:09:03;99710.41;;;15.78
40199;BMP280;25906;43.536;26.068;2022-10-16T14:12:01;99703.28;;;15.73
40199;BMP280;25906;43.536;26.068;2022-10-16T14:14:50;99707.88;;;15.71
40199;BMP280;25906;43.536;26.068;2022-10-16T14:17:37;99715.88;;;15.78
40199;BMP280;25906;43.536;26.068;2022-10-16T14:20:33;99702.03;;;15.46
40199;BMP280;25906;43.536;26.068;2022-10-16T14:23:35;99700.47;;;15.34
40199;BMP280;25906;43.536;26.068;2022-10-16T14:26:27;99708.78;;;15.45
40199;BMP280;25906;43.536;26.068;2022-10-16T14:29:17;99709.53;;;15.27
40199;BMP280;25906;43.536;26.068;2022-10-16T14:32:20;99715.16;;;15.29
40199;BMP280;25906;43.536;26.068;2022-10-16T14:35:43;99723.50;;;15.12
40199;BMP280;25906;43.536;26.068;2022-10-16T14:38:30;99723.75;;;15.07
40199;BMP280;25906;43.536;26.068;2022-10-16T14:41:20;99718.88;;;15.05
40199;BMP280;25906;43.536;26.068;2022-10-16T14:47:07;99728.22;;;14.93
40199;BMP280;25906;43.536;26.068;2022-10-16T14:49:54;99729.78;;;14.86
40199;BMP280;25906;43.536;26.068;2022-10-16T14:52:41;99729.63;;;14.94
40199;BMP280;25906;43.536;26.068;2022-10-16T14:58:21;99724.16;;;14.84
40199;BMP280;25906;43.536;26.068;2022-10-16T15:01:09;99718.97;;;14.60
40199;BMP280;25906;43.536;26.068;2022-10-16T15:03:56;99728.31;;;14.57
40199;BMP280;25906;43.536;26.068;2022-10-16T15:06:42;99730.56;;;14.51
40199;BMP280;25906;43.536;26.068;2022-10-16T15:09:27;99740.00;;;14.41
40199;BMP280;25906;43.536;26.068;2022-10-16T15:12:13;99729.25;;;14.33
40199;BMP280;25906;43.536;26.068;2022-10-16T15:14:58;99736.75;;;14.16
40199;BMP280;25906;43.536;26.068;2022-10-16T15:17:44;99737.97;;;14.06
40199;BMP280;25906;43.536;26.068;2022-10-16T15:20:33;99739.53;;;13.99
40199;BMP280;25906;43.536;26.068;2022-10-16T15:23:21;99749.50;;;13.87
40199;BMP280;25906;43.536;26.068;2022-10-16T15:26:07;99747.13;;;13.74
40199;BMP280;25906;43.536;26.068;2022-10-16T15:28:53;99751.56;;;13.70
40199;BMP280;25906;43.536;26.068;2022-10-16T15:31:38;99747.63;;;13.64
40199;BMP280;25906;43.536;26.068;2022-10-16T15:34:27;99758.38;;;13.62
40199;BMP280;25906;43.536;26.068;2022-10-16T15:37:13;99756.59;;;13.57
40199;BMP280;25906;43.536;26.068;2022-10-16T15:39:59;99763.25;;;13.46
40199;BMP280;25906;43.536;26.068;2022-10-16T15:42:44;99755.75;;;13.37
40199;BMP280;25906;43.536;26.068;2022-10-16T15:45:30;99761.66;;;13.27
40199;BMP280;25906;43.536;26.068;2022-10-16T15:48:15;99769.03;;;13.17
40199;BMP280;25906;43.536;26.068;2022-10-16T15:51:05;99764.47;;;13.19
40199;BMP280;25906;43.536;26.068;2022-10-16T15:53:51;99773.66;;;13.07
40199;BMP280;25906;43.536;26.068;2022-10-16T15:56:38;99773.03;;;13.16
40199;BMP280;25906;43.536;26.068;2022-10-16T15:59:23;99774.66;;;13.19
40199;BMP280;25906;43.536;26.068;2022-10-16T16:02:09;99789.41;;;13.08
40199;BMP280;25906;43.536;26.068;2022-10-16T16:04:55;99789.75;;;13.12
40199;BMP280;25906;43.536;26.068;2022-10-16T16:07:41;99791.88;;;13.14
40199;BMP280;25906;43.536;26.068;2022-10-16T16:10:27;99799.22;;;13.04
40199;BMP280;25906;43.536;26.068;2022-10-16T16:13:12;99799.69;;;12.93
40199;BMP280;25906;43.536;26.068;2022-10-16T16:15:58;99789.97;;;12.82
40199;BMP280;25906;43.536;26.068;2022-10-16T16:18:44;99797.28;;;12.80
40199;BMP280;25906;43.536;26.068;2022-10-16T16:21:29;99804.63;;;12.87
40199;BMP280;25906;43.536;26.068;2022-10-16T16:24:15;99811.59;;;12.81
40199;BMP280;25906;43.536;26.068;2022-10-16T16:27:01;99817.16;;;12.82
40199;BMP280;25906;43.536;26.068;2022-10-16T16:29:47;99810.16;;;12.80
40199;BMP280;25906;43.536;26.068;2022-10-16T16:32:34;99811.41;;;12.79
40199;BMP280;25906;43.536;26.068;2022-10-16T16:35:19;99811.78;;;12.75
40199;BMP280;25906;43.536;26.068;2022-10-16T16:38:05;99817.09;;;12.73
40199;BMP280;25906;43.536;26.068;2022-10-16T16:40:51;99822.53;;;12.73
40199;BMP280;25906;43.536;26.068;2022-10-16T16:43:37;99824.72;;;12.67
40199;BMP280;25906;43.536;26.068;2022-10-16T16:46:22;99820.44;;;12.57
40199;BMP280;25906;43.536;26.068;2022-10-16T16:49:12;99824.22;;;12.61
40199;BMP280;25906;43.536;26.068;2022-10-16T16:51:58;99826.22;;;12.61
40199;BMP280;25906;43.536;26.068;2022-10-16T16:54:43;99828.16;;;12.68
40199;BMP280;25906;43.536;26.068;2022-10-16T16:57:36;99830.16;;;12.67
40199;BMP280;25906;43.536;26.068;2022-10-16T17:00:22;99836.78;;;12.49
40199;BMP280;25906;43.536;26.068;2022-10-16T17:03:08;99838.06;;;12.48
40199;BMP280;25906;43.536;26.068;2022-10-16T17:06:06;99838.63;;;12.47
40199;BMP280;25906;43.536;26.068;2022-10-16T17:08:52;99838.97;;;12.51
40199;BMP280;25906;43.536;26.068;2022-10-16T17:11:38;99842.50;;;12.61
40199;BMP280;25906;43.536;26.068;2022-10-16T17:14:26;99845.28;;;12.53
40199;BMP280;25906;43.536;26.068;2022-10-16T17:17:12;99848.19;;;12.48
40199;BMP280;25906;43.536;26.068;2022-10-16T17:19:57;99844.16;;;12.56
40199;BMP280;25906;43.536;26.068;2022-10-16T17:22:43;99841.69;;;12.51
40199;BMP280;25906;43.536;26.068;2022-10-16T17:25:29;99837.81;;;12.54
40199;BMP280;25906;43.536;26.068;2022-10-16T17:28:14;99842.34;;;12.59
40199;BMP280;25906;43.536;26.068;2022-10-16T17:31:28;99844.84;;;12.64
40199;BMP280;25906;43.536;26.068;2022-10-16T17:34:13;99853.38;;;12.61
40199;BMP280;25906;43.536;26.068;2022-10-16T17:36:59;99849.28;;;12.52
40199;BMP280;25906;43.536;26.068;2022-10-16T17:39:44;99844.59;;;12.45
40199;BMP280;25906;43.536;26.068;2022-10-16T17:42:30;99838.63;;;12.47
40199;BMP280;25906;43.536;26.068;2022-10-16T17:45:15;99852.06;;;12.38
40199;BMP280;25906;43.536;26.068;2022-10-16T17:48:01;99854.09;;;12.30
40199;BMP280;25906;43.536;26.068;2022-10-16T17:50:46;99847.38;;;12.31
40199;BMP280;25906;43.536;26.068;2022-10-16T17:53:32;99859.94;;;12.19
40199;BMP280;25906;43.536;26.068;2022-10-16T17:56:18;99853.81;;;12.11
40199;BMP280;25906;43.536;26.068;2022-10-16T17:59:04;99857.81;;;12.10
40199;BMP280;25906;43.536;26.068;2022-10-16T18:01:50;99854.25;;;11.92
40199;BMP280;25906;43.536;26.068;2022-10-16T18:04:36;99870.00;;;11.87